Darstellungsparameter: Aktuell verwendete Einstellungen:
Skalierung der Graphiken ... ?
xyx+y,   Skalierungsfaktor:      Skalierung: Modus: x, Faktor: 1
Darstellungszeitraum ... ?
Vom - - bis: - -   Zeitraum: 05.06.2012 - 06.06.2012
Min/Max/Avg-Anzeige ... ?
Zeige MMA aktuell
Zeige MMA Monat
Zeige MMA alles
Zeige --A aktuell
Zeige --A Monat
Zeige --A alles
Keine MMA-Anzeige
MMA:
Keine MMA-Graphiken
MMA-Basis: 05.06.2012 - 06.06.2012
Quicknavigation für Darstellung... ?
Tage:      1T, 2T, 3T, 5T -1T -2T -3T -5T +1T +2T +3T +5T
Wochen: 1W, 2W, 3W -1W -2W -3W +1W +2W +3W
Monate: 1M, 3M, 6M -1M -3M -6M +1M +3M +6M
Jahre:    1J, 3J, 5J, 10J -1J -3J -5J -10J +1J +3J +5J +10J
Nutze für die Darstellung ... ?
Originaldaten oder Mittelwerte auf ...
Stundenbasis Tagesbasis Wochenbasis
Monatsbasis Jahresbasis      Datenbasis: Original-Daten
Darstellen als:
Statistik (Auto) Statistik J:M      Darstellung:
Zur Graphik,    zurück zur Übersicht aller Sensoren.
 
Tabellarische Datenbersicht: ?
 
Sensor: Nr:Datum:Temp:Abs-Feuchte:Windchill:Wind:
Aussen-T/F 1 05-06-2012 00:00:00 8.8 C 7.57 g/m*3 8.8 C 4.8 km/h
2 05-06-2012 00:05:00 8.8 C 7.49 g/m*3 7.98 C 6.4 km/h
3 05-06-2012 00:10:00 8.8 C 7.57 g/m*3 7.58 C 8.1 km/h
4 05-06-2012 00:15:00 8.8 C 7.49 g/m*3 8.8 C 4.8 km/h
5 05-06-2012 00:20:00 8.8 C 7.57 g/m*3 8.8 C 3.2 km/h
6 05-06-2012 00:25:00 8.8 C 7.57 g/m*3 8.8 C 4.8 km/h
7 05-06-2012 00:30:00 8.8 C 7.49 g/m*3 7.98 C 6.4 km/h
8 05-06-2012 00:35:00 8.8 C 7.57 g/m*3 8.8 C 4.8 km/h
9 05-06-2012 00:40:00 8.8 C 7.49 g/m*3 7.98 C 6.4 km/h
10 05-06-2012 00:45:00 8.8 C 7.49 g/m*3 8.8 C 4.8 km/h
11 05-06-2012 00:50:00 8.8 C 7.49 g/m*3 8.8 C 4.8 km/h
12 05-06-2012 00:55:00 8.8 C 7.49 g/m*3 7.98 C 6.4 km/h
13 05-06-2012 01:00:00 8.8 C 7.49 g/m*3 8.8 C 4.8 km/h
14 05-06-2012 01:05:00 8.8 C 7.49 g/m*3 8.8 C 3.2 km/h
15 05-06-2012 01:10:00 8.7 C 7.44 g/m*3 8.7 C 4.8 km/h
16 05-06-2012 01:15:00 8.7 C 7.44 g/m*3 8.7 C 3.2 km/h
17 05-06-2012 01:20:00 8.7 C 7.44 g/m*3 8.7 C 3.2 km/h
18 05-06-2012 01:25:00 8.7 C 7.44 g/m*3 8.7 C 3.2 km/h
19 05-06-2012 01:30:00 8.8 C 7.49 g/m*3 8.8 C 4.8 km/h
20 05-06-2012 01:35:00 8.8 C 7.49 g/m*3 8.8 C 3.2 km/h
21 05-06-2012 01:40:00 8.8 C 7.49 g/m*3 7.58 C 8.1 km/h
22 05-06-2012 01:45:00 8.8 C 7.49 g/m*3 8.8 C 4.8 km/h
23 05-06-2012 01:50:00 8.8 C 7.49 g/m*3 8.8 C 4.8 km/h
24 05-06-2012 01:55:00 8.8 C 7.49 g/m*3 8.8 C 3.2 km/h
25 05-06-2012 02:00:00 8.8 C 7.49 g/m*3 8.8 C 3.2 km/h
Sensor: Nr:Datum:Temp:Abs-Feuchte:Windchill:Wind:
Aussen-T/F 26 05-06-2012 02:05:00 8.9 C 7.53 g/m*3 8.9 C 4.8 km/h
27 05-06-2012 02:10:00 8.9 C 7.53 g/m*3 8.9 C 4.8 km/h
28 05-06-2012 02:15:00 8.9 C 7.45 g/m*3 8.9 C 1.6 km/h
29 05-06-2012 02:20:00 8.8 C 7.4 g/m*3 8.8 C 4.8 km/h
30 05-06-2012 02:25:00 8.8 C 7.49 g/m*3 6.97 C 11.3 km/h
31 05-06-2012 02:30:00 8.8 C 7.49 g/m*3 8.8 C 1.6 km/h
32 05-06-2012 02:35:00 8.8 C 7.49 g/m*3 8.8 C 4.8 km/h
33 05-06-2012 02:40:00 8.9 C 7.45 g/m*3 8.1 C 6.4 km/h
34 05-06-2012 02:45:00 8.9 C 7.53 g/m*3 8.9 C 4.8 km/h
35 05-06-2012 02:50:00 8.9 C 7.45 g/m*3 8.1 C 6.4 km/h
36 05-06-2012 02:55:00 8.9 C 7.45 g/m*3 8.9 C 4.8 km/h
37 05-06-2012 03:00:00 8.9 C 7.45 g/m*3 8.9 C 4.8 km/h
38 05-06-2012 03:05:00 8.9 C 7.45 g/m*3 8.9 C 4.8 km/h
39 05-06-2012 03:10:00 8.9 C 7.45 g/m*3 8.9 C 4.8 km/h
40 05-06-2012 03:15:00 9 C 7.41 g/m*3 9 C 4.8 km/h
41 05-06-2012 03:20:00 8.9 C 7.45 g/m*3 8.9 C 3.2 km/h
42 05-06-2012 03:25:00 8.9 C 7.45 g/m*3 8.9 C 4.8 km/h
43 05-06-2012 03:30:00 8.9 C 7.36 g/m*3 7.37 C 9.7 km/h
44 05-06-2012 03:35:00 8.9 C 7.36 g/m*3 8.9 C 4.8 km/h
45 05-06-2012 03:40:00 8.9 C 7.45 g/m*3 8.9 C 3.2 km/h
46 05-06-2012 03:45:00 8.8 C 7.4 g/m*3 8.8 C 1.6 km/h
47 05-06-2012 03:50:00 8.8 C 7.4 g/m*3 8.8 C 1.6 km/h
48 05-06-2012 03:55:00 8.7 C 7.35 g/m*3 8.7 C 4.8 km/h
49 05-06-2012 04:00:00 8.7 C 7.35 g/m*3 8.7 C 4.8 km/h
50 05-06-2012 04:05:00 8.7 C 7.35 g/m*3 7.87 C 6.4 km/h
Sensor: Nr:Datum:Temp:Abs-Feuchte:Windchill:Wind:
Aussen-T/F 51 05-06-2012 04:10:00 8.8 C 7.4 g/m*3 8.8 C 3.2 km/h
52 05-06-2012 04:15:00 8.8 C 7.4 g/m*3 7.98 C 6.4 km/h
53 05-06-2012 04:20:00 8.8 C 7.4 g/m*3 8.8 C 4.8 km/h
54 05-06-2012 04:25:00 8.8 C 7.4 g/m*3 8.8 C 3.2 km/h
55 05-06-2012 04:30:00 8.8 C 7.4 g/m*3 8.8 C 3.2 km/h
56 05-06-2012 04:35:00 8.8 C 7.4 g/m*3 8.8 C 3.2 km/h
57 05-06-2012 04:40:00 8.8 C 7.4 g/m*3 8.8 C 4.8 km/h
58 05-06-2012 04:45:00 8.8 C 7.4 g/m*3 8.8 C 4.8 km/h
59 05-06-2012 04:50:00 8.8 C 7.4 g/m*3 8.8 C 1.6 km/h
60 05-06-2012 04:55:00 8.7 C 7.35 g/m*3 8.7 C 4.8 km/h
61 05-06-2012 05:00:00 8.7 C 7.35 g/m*3 8.7 C 4.8 km/h
62 05-06-2012 05:05:00 8.7 C 7.35 g/m*3 7.87 C 6.4 km/h
63 05-06-2012 05:10:00 8.7 C 7.35 g/m*3 8.7 C 4.8 km/h
64 05-06-2012 05:15:00 8.7 C 7.35 g/m*3 8.7 C 1.6 km/h
65 05-06-2012 05:20:00 8.7 C 7.35 g/m*3 8.7 C 3.2 km/h
66 05-06-2012 05:25:00 8.7 C 7.35 g/m*3 8.7 C 1.6 km/h
67 05-06-2012 05:30:00 8.7 C 7.44 g/m*3 8.7 C 3.2 km/h
68 05-06-2012 05:35:00 8.7 C 7.44 g/m*3 8.7 C 1.6 km/h
69 05-06-2012 05:40:00 8.6 C 7.3 g/m*3 8.6 C 1.6 km/h
70 05-06-2012 05:45:00 8.7 C 7.44 g/m*3 8.7 C 3.2 km/h
71 05-06-2012 05:50:00 8.6 C 7.22 g/m*3 8.6 C 4.8 km/h
72 05-06-2012 05:55:00 8.7 C 7.35 g/m*3 8.7 C 1.6 km/h
73 05-06-2012 06:00:00 8.7 C 7.35 g/m*3 8.7 C 3.2 km/h
74 05-06-2012 06:05:00 8.7 C 7.35 g/m*3 8.7 C 1.6 km/h
75 05-06-2012 06:10:00 8.7 C 7.35 g/m*3 8.7 C 3.2 km/h
Sensor: Nr:Datum:Temp:Abs-Feuchte:Windchill:Wind:
Aussen-T/F 76 05-06-2012 06:15:00 8.8 C 7.4 g/m*3 8.8 C 1.6 km/h
77 05-06-2012 06:20:00 8.8 C 7.4 g/m*3 8.8 C 3.2 km/h
78 05-06-2012 06:25:00 8.8 C 7.49 g/m*3 8.8 C 1.6 km/h
79 05-06-2012 06:30:00 8.8 C 7.4 g/m*3 8.8 C 3.2 km/h
80 05-06-2012 06:35:00 8.9 C 7.45 g/m*3 8.9 C 3.2 km/h
81 05-06-2012 06:40:00 8.9 C 7.45 g/m*3 8.9 C 4.8 km/h
82 05-06-2012 06:45:00 9 C 7.49 g/m*3 7.49 C 9.7 km/h
83 05-06-2012 06:50:00 8.9 C 7.36 g/m*3 8.9 C 4.8 km/h
84 05-06-2012 06:55:00 8.9 C 7.36 g/m*3 8.1 C 6.4 km/h
85 05-06-2012 07:00:00 8.9 C 7.36 g/m*3 8.9 C 4.8 km/h
86 05-06-2012 07:05:00 8.9 C 7.36 g/m*3 8.9 C 3.2 km/h
87 05-06-2012 07:10:00 8.9 C 7.36 g/m*3 8.9 C 3.2 km/h
88 05-06-2012 07:15:00 8.9 C 7.36 g/m*3 8.9 C 4.8 km/h
89 05-06-2012 07:20:00 8.8 C 7.22 g/m*3 8.8 C 4.8 km/h
90 05-06-2012 07:25:00 8.8 C 7.31 g/m*3 6.97 C 11.3 km/h
91 05-06-2012 07:30:00 8.7 C 7.26 g/m*3 8.7 C 3.2 km/h
92 05-06-2012 07:35:00 8.7 C 7.35 g/m*3 8.7 C 4.8 km/h
93 05-06-2012 07:40:00 8.6 C 7.3 g/m*3 8.6 C 1.6 km/h
94 05-06-2012 07:45:00 8.6 C 7.22 g/m*3 8.6 C 3.2 km/h
95 05-06-2012 07:50:00 8.6 C 7.39 g/m*3 8.6 C 3.2 km/h
96 05-06-2012 07:55:00 8.5 C 7.26 g/m*3 8.5 C 4.8 km/h
97 05-06-2012 08:00:00 8.4 C 7.3 g/m*3 8.4 C 4.8 km/h
98 05-06-2012 08:05:00 8.5 C 7.26 g/m*3 8.5 C 1.6 km/h
99 05-06-2012 08:10:00 8.6 C 7.3 g/m*3 8.6 C 4.8 km/h
100 05-06-2012 08:15:00 8.7 C 7.26 g/m*3 8.7 C 4.8 km/h
Sensor: Nr:Datum:Temp:Abs-Feuchte:Windchill:Wind:
Aussen-T/F 101 05-06-2012 08:20:00 8.8 C 7.22 g/m*3 8.8 C 3.2 km/h
102 05-06-2012 08:25:00 8.8 C 7.31 g/m*3 8.8 C 1.6 km/h
103 05-06-2012 08:30:00 8.9 C 7.36 g/m*3 8.9 C 1.6 km/h
104 05-06-2012 08:35:00 9.1 C 7.28 g/m*3 9.1 C 1.6 km/h
105 05-06-2012 08:40:00 9.5 C 7.46 g/m*3 9.5 C 1.6 km/h
106 05-06-2012 08:45:00 9.9 C 7.47 g/m*3 9.9 C 3.2 km/h
107 05-06-2012 08:50:00 10.2 C 7.61 g/m*3 10.2 C 3.2 km/h
108 05-06-2012 08:55:00 10.6 C 7.61 g/m*3 10.6 C 4.8 km/h
109 05-06-2012 09:00:00 10.9 C 7.66 g/m*3 10.04 C 8.1 km/h
110 05-06-2012 09:05:00 11.1 C 7.66 g/m*3 11.1 C 6.4 km/h
111 05-06-2012 09:10:00 10.9 C 7.46 g/m*3 10.04 C 8.1 km/h
112 05-06-2012 09:15:00 10.8 C 7.51 g/m*3 10.8 C 3.2 km/h
113 05-06-2012 09:20:00 10.8 C 7.41 g/m*3 10.8 C 4.8 km/h
114 05-06-2012 09:25:00 11.1 C 7.76 g/m*3 11.1 C 3.2 km/h
115 05-06-2012 09:30:00 11.1 C 7.66 g/m*3 11.1 C 4.8 km/h
116 05-06-2012 09:35:00 11.2 C 7.5 g/m*3 11.2 C 8.1 km/h
117 05-06-2012 09:40:00 11.2 C 7.5 g/m*3 11.2 C 3.2 km/h
118 05-06-2012 09:45:00 11.1 C 7.55 g/m*3 11.1 C 4.8 km/h
119 05-06-2012 09:50:00 10.9 C 7.56 g/m*3 10.9 C 3.2 km/h
120 05-06-2012 09:55:00 10.9 C 7.46 g/m*3 10.9 C 4.8 km/h
121 05-06-2012 10:00:00 10.9 C 7.16 g/m*3 10.9 C 4.8 km/h
122 05-06-2012 10:05:00 11.3 C 7.55 g/m*3 11.3 C 4.8 km/h
123 05-06-2012 10:10:00 11.2 C 6.99 g/m*3 11.2 C 4.8 km/h
124 05-06-2012 10:15:00 11.9 C 7.84 g/m*3 11.9 C 3.2 km/h
125 05-06-2012 10:20:00 12.3 C 7.28 g/m*3 12.3 C 4.8 km/h
Sensor: Nr:Datum:Temp:Abs-Feuchte:Windchill:Wind:
Aussen-T/F 126 05-06-2012 10:25:00 12.1 C 7.4 g/m*3 12.1 C 3.2 km/h
127 05-06-2012 10:30:00 11.8 C 7.37 g/m*3 11.8 C 6.4 km/h
128 05-06-2012 10:35:00 11.6 C 6.86 g/m*3 11.6 C 6.4 km/h
129 05-06-2012 10:40:00 11.4 C 6.98 g/m*3 11.4 C 3.2 km/h
130 05-06-2012 10:45:00 11.4 C 7.08 g/m*3 11.4 C 4.8 km/h
131 05-06-2012 10:50:00 11.5 C 7.13 g/m*3 11.5 C 3.2 km/h
132 05-06-2012 10:55:00 11.6 C 7.17 g/m*3 11.6 C 6.4 km/h
133 05-06-2012 11:00:00 11.7 C 7.01 g/m*3 11.7 C 3.2 km/h
134 05-06-2012 11:05:00 12.1 C 7.18 g/m*3 12.1 C 3.2 km/h
135 05-06-2012 11:10:00 12.7 C 7.12 g/m*3 12.7 C 3.2 km/h
136 05-06-2012 11:15:00 13.1 C 7.3 g/m*3 13.1 C 4.8 km/h
137 05-06-2012 11:20:00 13.1 C 7.3 g/m*3 13.1 C 8.1 km/h
138 05-06-2012 11:25:00 12.9 C 6.76 g/m*3 12.9 C 4.8 km/h
139 05-06-2012 11:30:00 13.1 C 7.07 g/m*3 13.1 C 6.4 km/h
140 05-06-2012 11:35:00 13.4 C 7.09 g/m*3 13.4 C 6.4 km/h
141 05-06-2012 11:40:00 13.3 C 6.47 g/m*3 13.3 C 9.7 km/h
142 05-06-2012 11:45:00 14.2 C 6.35 g/m*3 14.2 C 1.6 km/h
143 05-06-2012 11:50:00 13.6 C 6.24 g/m*3 13.6 C 8.1 km/h
144 05-06-2012 11:55:00 13 C 6.35 g/m*3 13 C 6.4 km/h
145 05-06-2012 12:00:00 13 C 6.8 g/m*3 13 C 4.8 km/h
146 05-06-2012 12:05:00 13.8 C 6.55 g/m*3 13.8 C 4.8 km/h
147 05-06-2012 12:10:00 14.6 C 7.26 g/m*3 14.6 C 8.1 km/h
148 05-06-2012 12:15:00 14.1 C 6.43 g/m*3 14.1 C 9.7 km/h
149 05-06-2012 12:20:00 14.1 C 6.43 g/m*3 14.1 C 8.1 km/h
150 05-06-2012 12:25:00 13.7 C 6.16 g/m*3 13.7 C 8.1 km/h
Sensor: Nr:Datum:Temp:Abs-Feuchte:Windchill:Wind:
Aussen-T/F 151 05-06-2012 12:30:00 13.3 C 6.47 g/m*3 13.3 C 4.8 km/h
152 05-06-2012 12:35:00 13.3 C 6.24 g/m*3 13.3 C 3.2 km/h
153 05-06-2012 12:40:00 13.6 C 6.59 g/m*3 13.6 C 4.8 km/h
154 05-06-2012 12:45:00 13.7 C 6.28 g/m*3 13.7 C 4.8 km/h
155 05-06-2012 12:50:00 13.9 C 7.07 g/m*3 13.9 C 3.2 km/h
156 05-06-2012 12:55:00 13.9 C 6.71 g/m*3 13.9 C 4.8 km/h
157 05-06-2012 13:00:00 14.2 C 6.84 g/m*3 14.2 C 6.4 km/h
158 05-06-2012 13:05:00 14.1 C 6.31 g/m*3 14.1 C 6.4 km/h
159 05-06-2012 13:10:00 13.7 C 6.04 g/m*3 13.7 C 3.2 km/h
160 05-06-2012 13:15:00 14.1 C 6.67 g/m*3 14.1 C 3.2 km/h
161 05-06-2012 13:20:00 14.2 C 6.47 g/m*3 14.2 C 4.8 km/h
162 05-06-2012 13:25:00 14.2 C 6.11 g/m*3 14.2 C 6.4 km/h
163 05-06-2012 13:30:00 13.9 C 5.75 g/m*3 13.9 C 6.4 km/h
164 05-06-2012 13:35:00 14.4 C 6.3 g/m*3 14.4 C 8.1 km/h
165 05-06-2012 13:40:00 14.5 C 6.09 g/m*3 14.5 C 6.4 km/h
166 05-06-2012 13:45:00 14.8 C 6.08 g/m*3 14.8 C 9.7 km/h
167 05-06-2012 13:50:00 15 C 6.28 g/m*3 15 C 4.8 km/h
168 05-06-2012 13:55:00 14.7 C 6.04 g/m*3 14.7 C 6.4 km/h
169 05-06-2012 14:00:00 14.6 C 5.88 g/m*3 14.6 C 6.4 km/h
170 05-06-2012 14:05:00 14.9 C 5.61 g/m*3 14.9 C 4.8 km/h
171 05-06-2012 14:10:00 15.4 C 6.31 g/m*3 15.4 C 4.8 km/h
172 05-06-2012 14:15:00 15.7 C 6.69 g/m*3 15.7 C 4.8 km/h
173 05-06-2012 14:20:00 16.2 C 5.93 g/m*3 16.2 C 4.8 km/h
174 05-06-2012 14:25:00 16.3 C 6.1 g/m*3 16.3 C 9.7 km/h
175 05-06-2012 14:30:00 16.2 C 5.93 g/m*3 16.2 C 8.1 km/h
Sensor: Nr:Datum:Temp:Abs-Feuchte:Windchill:Wind:
Aussen-T/F 176 05-06-2012 14:35:00 15.8 C 5.79 g/m*3 15.8 C 4.8 km/h
177 05-06-2012 14:40:00 16.8 C 6.43 g/m*3 16.8 C 4.8 km/h
178 05-06-2012 14:45:00 16.4 C 5.86 g/m*3 16.4 C 4.8 km/h
179 05-06-2012 14:50:00 16.8 C 6 g/m*3 16.8 C 3.2 km/h
180 05-06-2012 14:55:00 16.8 C 6.29 g/m*3 16.8 C 8.1 km/h
181 05-06-2012 15:00:00 16.5 C 6.04 g/m*3 16.5 C 8.1 km/h
182 05-06-2012 15:05:00 16.6 C 6.07 g/m*3 16.6 C 4.8 km/h
183 05-06-2012 15:10:00 16.5 C 6.46 g/m*3 16.5 C 6.4 km/h
184 05-06-2012 15:15:00 16.6 C 6.07 g/m*3 16.6 C 8.1 km/h
185 05-06-2012 15:20:00 16.7 C 5.97 g/m*3 16.7 C 6.4 km/h
186 05-06-2012 15:25:00 16.8 C 6.15 g/m*3 16.8 C 4.8 km/h
187 05-06-2012 15:30:00 16.9 C 6.62 g/m*3 16.9 C 4.8 km/h
188 05-06-2012 15:35:00 16.9 C 6.33 g/m*3 16.9 C 4.8 km/h
189 05-06-2012 15:40:00 16.2 C 6.07 g/m*3 16.2 C 3.2 km/h
190 05-06-2012 15:45:00 15.8 C 5.79 g/m*3 15.8 C 4.8 km/h
191 05-06-2012 15:50:00 15.7 C 6.42 g/m*3 15.7 C 4.8 km/h
192 05-06-2012 15:55:00 16.1 C 6.99 g/m*3 16.1 C 8.1 km/h
193 05-06-2012 16:00:00 15.8 C 6.46 g/m*3 15.8 C 4.8 km/h
194 05-06-2012 16:05:00 15.9 C 6.5 g/m*3 15.9 C 4.8 km/h
195 05-06-2012 16:10:00 16 C 6.54 g/m*3 16 C 3.2 km/h
196 05-06-2012 16:15:00 16.3 C 6.52 g/m*3 16.3 C 3.2 km/h
197 05-06-2012 16:20:00 16.8 C 7.15 g/m*3 16.8 C 6.4 km/h
198 05-06-2012 16:25:00 17.2 C 6.74 g/m*3 17.2 C 6.4 km/h
199 05-06-2012 16:30:00 17.8 C 6.53 g/m*3 17.8 C 4.8 km/h
200 05-06-2012 16:35:00 18.2 C 6.53 g/m*3 18.2 C 4.8 km/h
Sensor: Nr:Datum:Temp:Abs-Feuchte:Windchill:Wind:
Aussen-T/F 201 05-06-2012 16:40:00 18.4 C 6.29 g/m*3 18.4 C 4.8 km/h
202 05-06-2012 16:45:00 18.1 C 6.95 g/m*3 18.1 C 3.2 km/h
203 05-06-2012 16:50:00 17.9 C 6.57 g/m*3 17.9 C 8.1 km/h
204 05-06-2012 16:55:00 18.4 C 6.61 g/m*3 18.4 C 6.4 km/h
205 05-06-2012 17:00:00 18.8 C 6.76 g/m*3 18.8 C 3.2 km/h
206 05-06-2012 17:05:00 18.2 C 6.84 g/m*3 18.2 C 8.1 km/h
207 05-06-2012 17:10:00 17.4 C 6.37 g/m*3 17.4 C 6.4 km/h
208 05-06-2012 17:15:00 17.6 C 6.3 g/m*3 17.6 C 6.4 km/h
209 05-06-2012 17:20:00 17.1 C 5.97 g/m*3 17.1 C 8.1 km/h
210 05-06-2012 17:25:00 16.9 C 6.62 g/m*3 16.9 C 6.4 km/h
211 05-06-2012 17:30:00 16.6 C 6.36 g/m*3 16.6 C 4.8 km/h
212 05-06-2012 17:35:00 16.6 C 7.06 g/m*3 16.6 C 4.8 km/h
213 05-06-2012 17:40:00 16.4 C 6.28 g/m*3 16.4 C 4.8 km/h
214 05-06-2012 17:45:00 16.5 C 6.88 g/m*3 16.5 C 8.1 km/h
215 05-06-2012 17:50:00 16.8 C 6.86 g/m*3 16.8 C 3.2 km/h
216 05-06-2012 17:55:00 16.7 C 6.4 g/m*3 16.7 C 6.4 km/h
217 05-06-2012 18:00:00 17.2 C 6.59 g/m*3 17.2 C 4.8 km/h
218 05-06-2012 18:05:00 17.4 C 6.37 g/m*3 17.4 C 4.8 km/h
219 05-06-2012 18:10:00 17 C 6.95 g/m*3 17 C 6.4 km/h
220 05-06-2012 18:15:00 17 C 6.66 g/m*3 17 C 4.8 km/h
221 05-06-2012 18:20:00 16.9 C 6.76 g/m*3 16.9 C 4.8 km/h
222 05-06-2012 18:25:00 16.7 C 6.96 g/m*3 16.7 C 3.2 km/h
223 05-06-2012 18:30:00 16.7 C 7.25 g/m*3 16.7 C 4.8 km/h
224 05-06-2012 18:35:00 17.4 C 7.26 g/m*3 17.4 C 4.8 km/h
225 05-06-2012 18:40:00 18 C 7.07 g/m*3 18 C 4.8 km/h
Sensor: Nr:Datum:Temp:Abs-Feuchte:Windchill:Wind:
Aussen-T/F 226 05-06-2012 18:45:00 18.1 C 7.73 g/m*3 18.1 C 11.3 km/h
227 05-06-2012 18:50:00 18.1 C 6.95 g/m*3 18.1 C 4.8 km/h
228 05-06-2012 18:55:00 17.7 C 7.24 g/m*3 17.7 C 4.8 km/h
229 05-06-2012 19:00:00 17.4 C 6.97 g/m*3 17.4 C 3.2 km/h
230 05-06-2012 19:05:00 17.4 C 8 g/m*3 17.4 C 3.2 km/h
231 05-06-2012 19:10:00 17.2 C 7.18 g/m*3 17.2 C 3.2 km/h
232 05-06-2012 19:15:00 16.7 C 7.82 g/m*3 16.7 C 3.2 km/h
233 05-06-2012 19:20:00 16.2 C 8 g/m*3 16.2 C 1.6 km/h
234 05-06-2012 19:25:00 15.7 C 8.3 g/m*3 15.7 C 3.2 km/h
235 05-06-2012 19:30:00 15.3 C 8.36 g/m*3 15.3 C 0 km/h
236 05-06-2012 19:35:00 15 C 8.98 g/m*3 15 C 1.6 km/h
237 05-06-2012 19:40:00 14.8 C 9.12 g/m*3 14.8 C 1.6 km/h
238 05-06-2012 19:45:00 14.7 C 9.07 g/m*3 14.7 C 0 km/h
239 05-06-2012 19:50:00 14.5 C 8.83 g/m*3 14.5 C 1.6 km/h
240 05-06-2012 19:55:00 14.5 C 8.33 g/m*3 14.5 C 3.2 km/h
241 05-06-2012 20:00:00 14.7 C 8.56 g/m*3 14.7 C 1.6 km/h
242 05-06-2012 20:05:00 15 C 7.82 g/m*3 15 C 1.6 km/h
243 05-06-2012 20:10:00 15.4 C 7.36 g/m*3 15.4 C 4.8 km/h
244 05-06-2012 20:15:00 15.6 C 8.38 g/m*3 15.6 C 3.2 km/h
245 05-06-2012 20:20:00 15.3 C 8.75 g/m*3 15.3 C 0 km/h
246 05-06-2012 20:25:00 15.1 C 7.22 g/m*3 15.1 C 4.8 km/h
247 05-06-2012 20:30:00 15.1 C 8.39 g/m*3 15.1 C 3.2 km/h
248 05-06-2012 20:35:00 14.9 C 7.39 g/m*3 14.9 C 4.8 km/h
249 05-06-2012 20:40:00 14.6 C 7.38 g/m*3 14.6 C 3.2 km/h
250 05-06-2012 20:45:00 14.4 C 8.41 g/m*3 14.4 C 3.2 km/h
Sensor: Nr:Datum:Temp:Abs-Feuchte:Windchill:Wind:
Aussen-T/F 251 05-06-2012 20:50:00 14.1 C 7.65 g/m*3 14.1 C 3.2 km/h
252 05-06-2012 20:55:00 13.9 C 8.15 g/m*3 13.9 C 3.2 km/h
253 05-06-2012 21:00:00 13.5 C 8.19 g/m*3 13.5 C 3.2 km/h
254 05-06-2012 21:05:00 13.2 C 8.38 g/m*3 13.2 C 1.6 km/h
255 05-06-2012 21:10:00 12.8 C 8.29 g/m*3 12.8 C 3.2 km/h
256 05-06-2012 21:15:00 12.6 C 8.3 g/m*3 12.6 C 3.2 km/h
257 05-06-2012 21:20:00 12.3 C 8.14 g/m*3 12.3 C 3.2 km/h
258 05-06-2012 21:25:00 12.1 C 8.15 g/m*3 12.1 C 3.2 km/h
259 05-06-2012 21:30:00 11.9 C 7.94 g/m*3 11.9 C 3.2 km/h
260 05-06-2012 21:35:00 11.7 C 7.95 g/m*3 11.7 C 3.2 km/h
261 05-06-2012 21:40:00 11.6 C 7.9 g/m*3 11.6 C 3.2 km/h
262 05-06-2012 21:45:00 11.4 C 8.01 g/m*3 11.4 C 3.2 km/h
263 05-06-2012 21:50:00 11.3 C 7.96 g/m*3 11.3 C 3.2 km/h
264 05-06-2012 21:55:00 11.2 C 7.8 g/m*3 11.2 C 3.2 km/h
265 05-06-2012 22:00:00 11.1 C 7.76 g/m*3 11.1 C 3.2 km/h
266 05-06-2012 22:05:00 11 C 7.71 g/m*3 11 C 3.2 km/h
267 05-06-2012 22:10:00 10.9 C 7.66 g/m*3 10.9 C 3.2 km/h
268 05-06-2012 22:15:00 10.7 C 7.66 g/m*3 10.7 C 3.2 km/h
269 05-06-2012 22:20:00 10.7 C 7.66 g/m*3 10.7 C 4.8 km/h
270 05-06-2012 22:25:00 10.6 C 7.61 g/m*3 10.6 C 3.2 km/h
271 05-06-2012 22:30:00 10.5 C 7.66 g/m*3 10.5 C 3.2 km/h
272 05-06-2012 22:35:00 10.4 C 7.61 g/m*3 10.4 C 3.2 km/h
273 05-06-2012 22:40:00 10.4 C 7.61 g/m*3 10.4 C 3.2 km/h
274 05-06-2012 22:45:00 10.4 C 7.61 g/m*3 10.4 C 3.2 km/h
275 05-06-2012 22:50:00 10.4 C 7.61 g/m*3 10.4 C 3.2 km/h
Sensor: Nr:Datum:Temp:Abs-Feuchte:Windchill:Wind:
Aussen-T/F 276 05-06-2012 22:55:00 10.5 C 7.66 g/m*3 10.5 C 3.2 km/h
277 05-06-2012 23:00:00 10.7 C 7.66 g/m*3 10.7 C 3.2 km/h
278 05-06-2012 23:05:00 10.8 C 7.81 g/m*3 10.8 C 1.6 km/h
279 05-06-2012 23:10:00 10.9 C 7.66 g/m*3 10.9 C 3.2 km/h
280 05-06-2012 23:15:00 10.9 C 7.56 g/m*3 10.9 C 1.6 km/h
281 05-06-2012 23:20:00 10.9 C 7.76 g/m*3 10.9 C 3.2 km/h
282 05-06-2012 23:25:00 10.8 C 7.51 g/m*3 10.8 C 3.2 km/h
283 05-06-2012 23:30:00 10.9 C 7.56 g/m*3 10.9 C 1.6 km/h
284 05-06-2012 23:35:00 11.1 C 7.45 g/m*3 11.1 C 4.8 km/h
285 05-06-2012 23:40:00 11.2 C 7.4 g/m*3 11.2 C 4.8 km/h
286 05-06-2012 23:45:00 11.2 C 7.8 g/m*3 11.2 C 1.6 km/h
287 05-06-2012 23:50:00 11.2 C 7.6 g/m*3 11.2 C 3.2 km/h
288 05-06-2012 23:55:00 11.1 C 7.05 g/m*3 11.1 C 3.2 km/h
289 06-06-2012 00:00:00 11.1 C 7.66 g/m*3 11.1 C 3.2 km/h
290 06-06-2012 00:05:00 10.9 C 7.46 g/m*3 10.9 C 4.8 km/h
291 06-06-2012 00:10:00 10.8 C 7.51 g/m*3 10.8 C 4.8 km/h
292 06-06-2012 00:15:00 10.7 C 7.66 g/m*3 10.7 C 3.2 km/h
293 06-06-2012 00:20:00 10.6 C 7.52 g/m*3 10.6 C 3.2 km/h
294 06-06-2012 00:25:00 10.6 C 7.32 g/m*3 10.6 C 3.2 km/h
295 06-06-2012 00:30:00 10.8 C 7.02 g/m*3 10.8 C 4.8 km/h
296 06-06-2012 00:35:00 11.1 C 7.15 g/m*3 11.1 C 3.2 km/h
297 06-06-2012 00:40:00 11.1 C 7.55 g/m*3 11.1 C 3.2 km/h
298 06-06-2012 00:45:00 11.1 C 7.55 g/m*3 11.1 C 1.6 km/h
299 06-06-2012 00:50:00 10.9 C 7.46 g/m*3 10.9 C 3.2 km/h
300 06-06-2012 00:55:00 10.8 C 7.41 g/m*3 10.8 C 3.2 km/h
Sensor: Nr:Datum:Temp:Abs-Feuchte:Windchill:Wind:
Aussen-T/F 301 06-06-2012 01:00:00 10.7 C 7.56 g/m*3 10.7 C 3.2 km/h
302 06-06-2012 01:05:00 10.6 C 7.03 g/m*3 10.6 C 3.2 km/h
303 06-06-2012 01:10:00 10.7 C 7.56 g/m*3 10.7 C 4.8 km/h
304 06-06-2012 01:15:00 10.7 C 7.37 g/m*3 10.7 C 3.2 km/h
305 06-06-2012 01:20:00 10.8 C 7.51 g/m*3 10.8 C 3.2 km/h
306 06-06-2012 01:25:00 10.8 C 7.51 g/m*3 10.8 C 1.6 km/h
307 06-06-2012 01:30:00 10.9 C 6.96 g/m*3 10.9 C 3.2 km/h
308 06-06-2012 01:35:00 11.1 C 7.25 g/m*3 11.1 C 3.2 km/h
309 06-06-2012 01:40:00 11.1 C 7.05 g/m*3 11.1 C 3.2 km/h
310 06-06-2012 01:45:00 11.3 C 7.45 g/m*3 11.3 C 4.8 km/h
311 06-06-2012 01:50:00 11.3 C 7.55 g/m*3 11.3 C 1.6 km/h
312 06-06-2012 01:55:00 11.1 C 7.35 g/m*3 11.1 C 3.2 km/h
313 06-06-2012 02:00:00 11.1 C 7.45 g/m*3 11.1 C 3.2 km/h
314 06-06-2012 02:05:00 11.1 C 7.55 g/m*3 11.1 C 3.2 km/h
315 06-06-2012 02:10:00 11 C 7.01 g/m*3 11 C 1.6 km/h
316 06-06-2012 02:15:00 11.1 C 6.95 g/m*3 11.1 C 4.8 km/h
317 06-06-2012 02:20:00 11.3 C 7.45 g/m*3 11.3 C 3.2 km/h
318 06-06-2012 02:25:00 11.5 C 7.23 g/m*3 11.5 C 8.1 km/h
319 06-06-2012 02:30:00 11.4 C 7.29 g/m*3 11.4 C 1.6 km/h
320 06-06-2012 02:35:00 11.4 C 6.98 g/m*3 11.4 C 3.2 km/h
321 06-06-2012 02:40:00 11.6 C 6.96 g/m*3 11.6 C 4.8 km/h
322 06-06-2012 02:45:00 11.6 C 7.38 g/m*3 11.6 C 3.2 km/h
323 06-06-2012 02:50:00 11.6 C 7.48 g/m*3 11.6 C 1.6 km/h
324 06-06-2012 02:55:00 11.4 C 7.39 g/m*3 11.4 C 1.6 km/h
325 06-06-2012 03:00:00 11.5 C 7.13 g/m*3 11.5 C 1.6 km/h
Sensor: Nr:Datum:Temp:Abs-Feuchte:Windchill:Wind:
Aussen-T/F 326 06-06-2012 03:05:00 11.6 C 6.96 g/m*3 11.6 C 4.8 km/h
327 06-06-2012 03:10:00 11.8 C 6.95 g/m*3 11.8 C 3.2 km/h
328 06-06-2012 03:15:00 11.9 C 6.99 g/m*3 11.9 C 3.2 km/h
329 06-06-2012 03:20:00 11.9 C 6.99 g/m*3 11.9 C 3.2 km/h
330 06-06-2012 03:25:00 11.9 C 7.2 g/m*3 11.9 C 3.2 km/h
331 06-06-2012 03:30:00 11.8 C 7.37 g/m*3 11.8 C 3.2 km/h
332 06-06-2012 03:35:00 11.7 C 7.01 g/m*3 11.7 C 4.8 km/h
333 06-06-2012 03:40:00 11.8 C 7.16 g/m*3 11.8 C 4.8 km/h
334 06-06-2012 03:45:00 11.8 C 7.05 g/m*3 11.8 C 8.1 km/h
335 06-06-2012 03:50:00 11.8 C 7.05 g/m*3 11.8 C 4.8 km/h
336 06-06-2012 03:55:00 11.8 C 7.26 g/m*3 11.8 C 3.2 km/h
337 06-06-2012 04:00:00 11.7 C 7.43 g/m*3 11.7 C 1.6 km/h
338 06-06-2012 04:05:00 11.6 C 7.69 g/m*3 11.6 C 1.6 km/h
339 06-06-2012 04:10:00 11.5 C 7.75 g/m*3 11.5 C 1.6 km/h
340 06-06-2012 04:15:00 11.4 C 7.39 g/m*3 11.4 C 3.2 km/h
341 06-06-2012 04:20:00 11.4 C 7.8 g/m*3 11.4 C 1.6 km/h
342 06-06-2012 04:25:00 11.2 C 7.91 g/m*3 11.2 C 3.2 km/h
343 06-06-2012 04:30:00 11.1 C 8.06 g/m*3 11.1 C 3.2 km/h
344 06-06-2012 04:35:00 10.9 C 7.76 g/m*3 10.9 C 1.6 km/h
345 06-06-2012 04:40:00 10.8 C 7.91 g/m*3 10.8 C 3.2 km/h
346 06-06-2012 04:45:00 10.8 C 8.2 g/m*3 10.8 C 0 km/h
347 06-06-2012 04:50:00 10.7 C 8.05 g/m*3 10.7 C 3.2 km/h
348 06-06-2012 04:55:00 10.6 C 8.1 g/m*3 10.6 C 1.6 km/h
349 06-06-2012 05:00:00 10.4 C 8.19 g/m*3 10.4 C 0 km/h
350 06-06-2012 05:05:00 10.3 C 8.24 g/m*3 10.3 C 1.6 km/h
Sensor: Nr:Datum:Temp:Abs-Feuchte:Windchill:Wind:
Aussen-T/F 351 06-06-2012 05:10:00 10.2 C 8.28 g/m*3 10.2 C 0 km/h
352 06-06-2012 05:15:00 10.1 C 8.23 g/m*3 10.1 C 0 km/h
353 06-06-2012 05:20:00 10 C 8.27 g/m*3 10 C 1.6 km/h
354 06-06-2012 05:25:00 9.9 C 8.31 g/m*3 9.9 C 0 km/h
355 06-06-2012 05:30:00 9.8 C 8.35 g/m*3 9.8 C 1.6 km/h
356 06-06-2012 05:35:00 9.7 C 8.3 g/m*3 9.7 C 1.6 km/h
357 06-06-2012 05:40:00 9.7 C 8.39 g/m*3 9.7 C 0 km/h
358 06-06-2012 05:45:00 9.6 C 8.34 g/m*3 9.6 C 0 km/h
359 06-06-2012 05:50:00 9.6 C 8.43 g/m*3 9.6 C 0 km/h
360 06-06-2012 05:55:00 9.6 C 8.43 g/m*3 9.6 C 0 km/h
361 06-06-2012 06:00:00 9.6 C 8.43 g/m*3 9.6 C 0 km/h
362 06-06-2012 06:05:00 9.5 C 8.37 g/m*3 9.5 C 0 km/h
363 06-06-2012 06:10:00 9.5 C 8.47 g/m*3 9.5 C 0 km/h
364 06-06-2012 06:15:00 9.5 C 8.47 g/m*3 9.5 C 0 km/h
365 06-06-2012 06:20:00 9.6 C 8.52 g/m*3 9.6 C 0 km/h
366 06-06-2012 06:25:00 9.6 C 8.52 g/m*3 9.6 C 0 km/h
367 06-06-2012 06:30:00 9.7 C 8.57 g/m*3 9.7 C 0 km/h
368 06-06-2012 06:35:00 9.7 C 8.57 g/m*3 9.7 C 0 km/h
369 06-06-2012 06:40:00 9.8 C 8.63 g/m*3 9.8 C 0 km/h
370 06-06-2012 06:45:00 9.8 C 8.72 g/m*3 9.8 C 0 km/h
371 06-06-2012 06:50:00 9.9 C 8.78 g/m*3 9.9 C 0 km/h
372 06-06-2012 06:55:00 9.9 C 8.78 g/m*3 9.9 C 0 km/h
373 06-06-2012 07:00:00 10 C 8.83 g/m*3 10 C 0 km/h
374 06-06-2012 07:05:00 10 C 8.83 g/m*3 10 C 0 km/h
375 06-06-2012 07:10:00 10 C 8.83 g/m*3 10 C 0 km/h
Sensor: Nr:Datum:Temp:Abs-Feuchte:Windchill:Wind:
Aussen-T/F 376 06-06-2012 07:15:00 10 C 8.74 g/m*3 10 C 0 km/h
377 06-06-2012 07:20:00 10.1 C 8.79 g/m*3 10.1 C 1.6 km/h
378 06-06-2012 07:25:00 10.2 C 8.85 g/m*3 10.2 C 1.6 km/h
379 06-06-2012 07:30:00 10.2 C 8.76 g/m*3 10.2 C 1.6 km/h
380 06-06-2012 07:35:00 10.4 C 8.77 g/m*3 10.4 C 1.6 km/h
381 06-06-2012 07:40:00 10.5 C 8.83 g/m*3 10.5 C 0 km/h
382 06-06-2012 07:45:00 10.6 C 8.78 g/m*3 10.6 C 1.6 km/h
383 06-06-2012 07:50:00 10.8 C 8.99 g/m*3 10.8 C 1.6 km/h
384 06-06-2012 07:55:00 10.9 C 9.05 g/m*3 10.9 C 1.6 km/h
385 06-06-2012 08:00:00 10.9 C 9.05 g/m*3 10.9 C 0 km/h
386 06-06-2012 08:05:00 11 C 9.11 g/m*3 11 C 0 km/h
387 06-06-2012 08:10:00 11.1 C 9.17 g/m*3 11.1 C 0 km/h
388 06-06-2012 08:15:00 11.2 C 9.22 g/m*3 11.2 C 0 km/h
389 06-06-2012 08:20:00 11.2 C 9.02 g/m*3 11.2 C 0 km/h
390 06-06-2012 08:25:00 11.3 C 9.08 g/m*3 11.3 C 0 km/h
391 06-06-2012 08:30:00 11.3 C 9.08 g/m*3 11.3 C 1.6 km/h
392 06-06-2012 08:35:00 11.4 C 9.14 g/m*3 11.4 C 1.6 km/h
393 06-06-2012 08:40:00 11.4 C 9.14 g/m*3 11.4 C 0 km/h
394 06-06-2012 08:45:00 11.6 C 9.15 g/m*3 11.6 C 1.6 km/h
395 06-06-2012 08:50:00 11.6 C 9.15 g/m*3 11.6 C 3.2 km/h
396 06-06-2012 08:55:00 11.7 C 9.2 g/m*3 11.7 C 1.6 km/h
397 06-06-2012 09:00:00 11.7 C 9.2 g/m*3 11.7 C 6.4 km/h
398 06-06-2012 09:05:00 11.7 C 9.2 g/m*3 11.7 C 3.2 km/h
399 06-06-2012 09:10:00 11.7 C 9.2 g/m*3 11.7 C 0 km/h
400 06-06-2012 09:15:00 11.6 C 9.25 g/m*3 11.6 C 3.2 km/h
Sensor: Nr:Datum:Temp:Abs-Feuchte:Windchill:Wind:
Aussen-T/F 401 06-06-2012 09:20:00 11.4 C 9.14 g/m*3 11.4 C 3.2 km/h
402 06-06-2012 09:25:00 11.3 C 9.28 g/m*3 11.3 C 1.6 km/h
403 06-06-2012 09:30:00 11.2 C 9.22 g/m*3 11.2 C 1.6 km/h
404 06-06-2012 09:35:00 11.2 C 9.22 g/m*3 11.2 C 1.6 km/h
405 06-06-2012 09:40:00 11.2 C 9.33 g/m*3 11.2 C 0 km/h
406 06-06-2012 09:45:00 11.2 C 9.33 g/m*3 11.2 C 0 km/h
407 06-06-2012 09:50:00 11.2 C 9.43 g/m*3 11.2 C 0 km/h
408 06-06-2012 09:55:00 11.2 C 9.43 g/m*3 11.2 C 1.6 km/h
409 06-06-2012 10:00:00 11.2 C 9.43 g/m*3 11.2 C 1.6 km/h
410 06-06-2012 10:05:00 11.2 C 9.43 g/m*3 11.2 C 1.6 km/h
411 06-06-2012 10:10:00 11.2 C 9.22 g/m*3 11.2 C 0 km/h
412 06-06-2012 10:15:00 11.2 C 9.22 g/m*3 11.2 C 1.6 km/h
413 06-06-2012 10:20:00 11.3 C 9.49 g/m*3 11.3 C 0 km/h
414 06-06-2012 10:25:00 11.3 C 9.38 g/m*3 11.3 C 0 km/h
415 06-06-2012 10:30:00 11.3 C 9.38 g/m*3 11.3 C 4.8 km/h
416 06-06-2012 10:35:00 11.4 C 9.44 g/m*3 11.4 C 1.6 km/h
417 06-06-2012 10:40:00 11.4 C 9.55 g/m*3 11.4 C 3.2 km/h
418 06-06-2012 10:45:00 11.4 C 9.55 g/m*3 11.4 C 3.2 km/h
419 06-06-2012 10:50:00 11.4 C 9.44 g/m*3 11.4 C 3.2 km/h
420 06-06-2012 10:55:00 11.3 C 9.38 g/m*3 11.3 C 3.2 km/h
421 06-06-2012 11:00:00 11.3 C 9.49 g/m*3 11.3 C 0 km/h
422 06-06-2012 11:05:00 11.4 C 9.55 g/m*3 11.4 C 1.6 km/h
423 06-06-2012 11:10:00 11.4 C 9.65 g/m*3 11.4 C 0 km/h
424 06-06-2012 11:15:00 11.4 C 9.55 g/m*3 11.4 C 0 km/h
425 06-06-2012 11:20:00 11.5 C 9.61 g/m*3 11.5 C 0 km/h
Sensor: Nr:Datum:Temp:Abs-Feuchte:Windchill:Wind:
Aussen-T/F 426 06-06-2012 11:25:00 11.6 C 9.67 g/m*3 11.6 C 0 km/h
427 06-06-2012 11:30:00 11.9 C 9.96 g/m*3 11.9 C 1.6 km/h
428 06-06-2012 11:35:00 12.2 C 10.14 g/m*3 12.2 C 1.6 km/h
429 06-06-2012 11:40:00 12.2 C 10.04 g/m*3 12.2 C 1.6 km/h
430 06-06-2012 11:45:00 12.2 C 10.04 g/m*3 12.2 C 1.6 km/h
431 06-06-2012 11:50:00 12.3 C 10.1 g/m*3 12.3 C 1.6 km/h
432 06-06-2012 11:55:00 12.2 C 9.93 g/m*3 12.2 C 3.2 km/h
433 06-06-2012 12:00:00 12.2 C 10.04 g/m*3 12.2 C 1.6 km/h
434 06-06-2012 12:05:00 12.1 C 9.87 g/m*3 12.1 C 3.2 km/h
435 06-06-2012 12:10:00 12.1 C 9.87 g/m*3 12.1 C 1.6 km/h
436 06-06-2012 12:15:00 12.1 C 9.97 g/m*3 12.1 C 1.6 km/h
437 06-06-2012 12:20:00 12.1 C 9.97 g/m*3 12.1 C 1.6 km/h
438 06-06-2012 12:25:00 12.2 C 10.14 g/m*3 12.2 C 1.6 km/h
439 06-06-2012 12:30:00 12.4 C 10.38 g/m*3 12.4 C 3.2 km/h
440 06-06-2012 12:35:00 12.5 C 10.44 g/m*3 12.5 C 1.6 km/h
441 06-06-2012 12:40:00 12.7 C 10.46 g/m*3 12.7 C 3.2 km/h
442 06-06-2012 12:45:00 12.8 C 10.53 g/m*3 12.8 C 3.2 km/h
443 06-06-2012 12:50:00 13 C 10.66 g/m*3 13 C 1.6 km/h
444 06-06-2012 12:55:00 13.2 C 10.79 g/m*3 13.2 C 0 km/h
445 06-06-2012 13:00:00 13.4 C 10.93 g/m*3 13.4 C 1.6 km/h
446 06-06-2012 13:05:00 13.6 C 11.06 g/m*3 13.6 C 1.6 km/h
447 06-06-2012 13:10:00 13.8 C 11.2 g/m*3 13.8 C 3.2 km/h
448 06-06-2012 13:15:00 14.2 C 11.48 g/m*3 14.2 C 1.6 km/h
449 06-06-2012 13:20:00 14.7 C 11.46 g/m*3 14.7 C 9.7 km/h
450 06-06-2012 13:25:00 15.5 C 11.76 g/m*3 15.5 C 12.9 km/h
Sensor: Nr:Datum:Temp:Abs-Feuchte:Windchill:Wind:
Aussen-T/F 451 06-06-2012 13:30:00 15.7 C 11.64 g/m*3 15.7 C 12.9 km/h
452 06-06-2012 13:35:00 15.8 C 11.71 g/m*3 15.8 C 11.3 km/h
453 06-06-2012 13:40:00 16.2 C 12.14 g/m*3 16.2 C 9.7 km/h
454 06-06-2012 13:45:00 16.6 C 12.01 g/m*3 16.6 C 11.3 km/h
455 06-06-2012 13:50:00 16.8 C 12.01 g/m*3 16.8 C 9.7 km/h
456 06-06-2012 13:55:00 17.2 C 12.3 g/m*3 17.2 C 8.1 km/h
457 06-06-2012 14:00:00 17.6 C 12.45 g/m*3 17.6 C 9.7 km/h
458 06-06-2012 14:05:00 17.7 C 12.22 g/m*3 17.7 C 11.3 km/h
459 06-06-2012 14:10:00 18 C 12.9 g/m*3 18 C 14.5 km/h
460 06-06-2012 14:15:00 17.8 C 11.84 g/m*3 17.8 C 11.3 km/h
461 06-06-2012 14:20:00 18.2 C 12.28 g/m*3 18.2 C 9.7 km/h
462 06-06-2012 14:25:00 18.2 C 12.28 g/m*3 18.2 C 11.3 km/h
463 06-06-2012 14:30:00 18.3 C 11.88 g/m*3 18.3 C 12.9 km/h
464 06-06-2012 14:35:00 18.3 C 11.88 g/m*3 18.3 C 16.1 km/h
465 06-06-2012 14:40:00 18.4 C 12.11 g/m*3 18.4 C 12.9 km/h
466 06-06-2012 14:45:00 18.3 C 11.88 g/m*3 18.3 C 11.3 km/h
467 06-06-2012 14:50:00 18.7 C 12.33 g/m*3 18.7 C 9.7 km/h
468 06-06-2012 14:55:00 19.1 C 12.29 g/m*3 19.1 C 8.1 km/h
469 06-06-2012 15:00:00 18.9 C 11.83 g/m*3 18.9 C 12.9 km/h
470 06-06-2012 15:05:00 18.9 C 11.83 g/m*3 18.9 C 12.9 km/h
471 06-06-2012 15:10:00 18.9 C 11.99 g/m*3 18.9 C 8.1 km/h
472 06-06-2012 15:15:00 18.8 C 11.76 g/m*3 18.8 C 6.4 km/h
473 06-06-2012 15:20:00 18.6 C 11.62 g/m*3 18.6 C 11.3 km/h
474 06-06-2012 15:25:00 18.2 C 11.66 g/m*3 18.2 C 14.5 km/h
475 06-06-2012 15:30:00 18.4 C 11.64 g/m*3 18.4 C 9.7 km/h
Sensor: Nr:Datum:Temp:Abs-Feuchte:Windchill:Wind:
Aussen-T/F 476 06-06-2012 15:35:00 18.6 C 11.62 g/m*3 18.6 C 8.1 km/h
477 06-06-2012 15:40:00 18.7 C 12.01 g/m*3 18.7 C 8.1 km/h
478 06-06-2012 15:45:00 18.6 C 11.78 g/m*3 18.6 C 8.1 km/h
479 06-06-2012 15:50:00 18.5 C 11.71 g/m*3 18.5 C 9.7 km/h
480 06-06-2012 15:55:00 18.4 C 11.95 g/m*3 18.4 C 6.4 km/h
481 06-06-2012 16:00:00 18.2 C 12.43 g/m*3 18.2 C 3.2 km/h
482 06-06-2012 16:05:00 17.9 C 12.52 g/m*3 17.9 C 1.6 km/h
483 06-06-2012 16:10:00 17.4 C 12.15 g/m*3 17.4 C 8.1 km/h
484 06-06-2012 16:15:00 16.9 C 11.94 g/m*3 16.9 C 12.9 km/h
485 06-06-2012 16:20:00 16.2 C 11.86 g/m*3 16.2 C 11.3 km/h
486 06-06-2012 16:25:00 15.5 C 11.76 g/m*3 15.5 C 9.7 km/h
487 06-06-2012 16:30:00 15.7 C 12.18 g/m*3 15.7 C 4.8 km/h
488 06-06-2012 16:35:00 15.8 C 12.38 g/m*3 15.8 C 4.8 km/h
489 06-06-2012 16:40:00 16.1 C 12.61 g/m*3 16.1 C 3.2 km/h
490 06-06-2012 16:45:00 16.2 C 12.55 g/m*3 16.2 C 4.8 km/h
491 06-06-2012 16:50:00 17.1 C 13.54 g/m*3 17.1 C 4.8 km/h
492 06-06-2012 16:55:00 16.9 C 12.8 g/m*3 16.9 C 6.4 km/h
493 06-06-2012 17:00:00 16.6 C 12.86 g/m*3 16.6 C 3.2 km/h
494 06-06-2012 17:05:00 16.4 C 12.84 g/m*3 16.4 C 3.2 km/h
495 06-06-2012 17:10:00 16.2 C 12.55 g/m*3 16.2 C 4.8 km/h
496 06-06-2012 17:15:00 16 C 12.13 g/m*3 16 C 6.4 km/h
497 06-06-2012 17:20:00 15.9 C 12.19 g/m*3 15.9 C 4.8 km/h
498 06-06-2012 17:25:00 15.7 C 12.18 g/m*3 15.7 C 6.4 km/h
499 06-06-2012 17:30:00 15.8 C 12.52 g/m*3 15.8 C 4.8 km/h
500 06-06-2012 17:35:00 15.8 C 12.52 g/m*3 15.8 C 3.2 km/h
Sensor: Nr:Datum:Temp:Abs-Feuchte:Windchill:Wind:
Aussen-T/F 501 06-06-2012 17:40:00 16 C 12.67 g/m*3 16 C 4.8 km/h
502 06-06-2012 17:45:00 16.1 C 12.61 g/m*3 16.1 C 4.8 km/h
503 06-06-2012 17:50:00 16.2 C 12.96 g/m*3 16.2 C 3.2 km/h
504 06-06-2012 17:55:00 16.3 C 12.9 g/m*3 16.3 C 6.4 km/h
505 06-06-2012 18:00:00 16.2 C 12.82 g/m*3 16.2 C 3.2 km/h
506 06-06-2012 18:05:00 16.1 C 12.75 g/m*3 16.1 C 3.2 km/h
507 06-06-2012 18:10:00 15.9 C 12.59 g/m*3 15.9 C 1.6 km/h
508 06-06-2012 18:15:00 15.8 C 12.52 g/m*3 15.8 C 3.2 km/h
509 06-06-2012 18:20:00 15.7 C 12.58 g/m*3 15.7 C 3.2 km/h
510 06-06-2012 18:25:00 15.7 C 12.04 g/m*3 15.7 C 6.4 km/h
511 06-06-2012 18:30:00 15.6 C 11.84 g/m*3 15.6 C 6.4 km/h
512 06-06-2012 18:35:00 15.4 C 11.56 g/m*3 15.4 C 4.8 km/h
513 06-06-2012 18:40:00 15.3 C 11.62 g/m*3 15.3 C 6.4 km/h
514 06-06-2012 18:45:00 15.2 C 11.68 g/m*3 15.2 C 6.4 km/h
515 06-06-2012 18:50:00 15.2 C 11.68 g/m*3 15.2 C 8.1 km/h
516 06-06-2012 18:55:00 15.1 C 11.61 g/m*3 15.1 C 6.4 km/h
517 06-06-2012 19:00:00 15.1 C 11.61 g/m*3 15.1 C 6.4 km/h
518 06-06-2012 19:05:00 15.1 C 11.74 g/m*3 15.1 C 9.7 km/h
519 06-06-2012 19:10:00 15 C 11.54 g/m*3 15 C 9.7 km/h
520 06-06-2012 19:15:00 15.1 C 11.61 g/m*3 15.1 C 9.7 km/h
521 06-06-2012 19:20:00 15.1 C 11.61 g/m*3 15.1 C 6.4 km/h
522 06-06-2012 19:25:00 15.2 C 11.94 g/m*3 15.2 C 4.8 km/h
523 06-06-2012 19:30:00 15.2 C 11.94 g/m*3 15.2 C 6.4 km/h
524 06-06-2012 19:35:00 15.1 C 12 g/m*3 15.1 C 1.6 km/h
525 06-06-2012 19:40:00 15.1 C 12 g/m*3 15.1 C 3.2 km/h
Sensor: Nr:Datum:Temp:Abs-Feuchte:Windchill:Wind:
Aussen-T/F 526 06-06-2012 19:45:00 15.1 C 12 g/m*3 15.1 C 3.2 km/h
527 06-06-2012 19:50:00 15.1 C 12.13 g/m*3 15.1 C 1.6 km/h
528 06-06-2012 19:55:00 15 C 12.05 g/m*3 15 C 3.2 km/h
529 06-06-2012 20:00:00 14.9 C 11.98 g/m*3 14.9 C 0 km/h
530 06-06-2012 20:05:00 14.8 C 11.91 g/m*3 14.8 C 0 km/h
531 06-06-2012 20:10:00 14.7 C 11.83 g/m*3 14.7 C 0 km/h
532 06-06-2012 20:15:00 14.7 C 11.83 g/m*3 14.7 C 1.6 km/h
533 06-06-2012 20:20:00 14.6 C 11.76 g/m*3 14.6 C 3.2 km/h
534 06-06-2012 20:25:00 14.4 C 11.74 g/m*3 14.4 C 3.2 km/h
535 06-06-2012 20:30:00 14.3 C 11.67 g/m*3 14.3 C 3.2 km/h
536 06-06-2012 20:35:00 14.3 C 11.67 g/m*3 14.3 C 3.2 km/h
537 06-06-2012 20:40:00 14.2 C 11.6 g/m*3 14.2 C 3.2 km/h
538 06-06-2012 20:45:00 14.2 C 11.6 g/m*3 14.2 C 0 km/h
539 06-06-2012 20:50:00 14.2 C 11.6 g/m*3 14.2 C 1.6 km/h
540 06-06-2012 20:55:00 14.2 C 11.6 g/m*3 14.2 C 1.6 km/h
541 06-06-2012 21:00:00 14.3 C 11.79 g/m*3 14.3 C 0 km/h
542 06-06-2012 21:05:00 14.3 C 11.79 g/m*3 14.3 C 1.6 km/h
543 06-06-2012 21:10:00 14.3 C 11.79 g/m*3 14.3 C 1.6 km/h
544 06-06-2012 21:15:00 14.3 C 11.67 g/m*3 14.3 C 3.2 km/h
545 06-06-2012 21:20:00 14.2 C 11.6 g/m*3 14.2 C 1.6 km/h
546 06-06-2012 21:25:00 14.2 C 11.6 g/m*3 14.2 C 1.6 km/h
547 06-06-2012 21:30:00 14.1 C 11.53 g/m*3 14.1 C 1.6 km/h
548 06-06-2012 21:35:00 13.9 C 11.39 g/m*3 13.9 C 3.2 km/h
549 06-06-2012 21:40:00 13.9 C 11.39 g/m*3 13.9 C 1.6 km/h
550 06-06-2012 21:45:00 13.8 C 11.32 g/m*3 13.8 C 0 km/h
Sensor: Nr:Datum:Temp:Abs-Feuchte:Windchill:Wind:
Aussen-T/F 551 06-06-2012 21:50:00 13.7 C 11.25 g/m*3 13.7 C 0 km/h
552 06-06-2012 21:55:00 13.7 C 11.25 g/m*3 13.7 C 0 km/h
553 06-06-2012 22:00:00 13.5 C 11.11 g/m*3 13.5 C 0 km/h
554 06-06-2012 22:05:00 13.4 C 11.04 g/m*3 13.4 C 0 km/h
555 06-06-2012 22:10:00 13.3 C 10.98 g/m*3 13.3 C 0 km/h
556 06-06-2012 22:15:00 13.3 C 11.09 g/m*3 13.3 C 1.6 km/h
557 06-06-2012 22:20:00 13.3 C 11.09 g/m*3 13.3 C 0 km/h
558 06-06-2012 22:25:00 13.3 C 11.09 g/m*3 13.3 C 0 km/h
559 06-06-2012 22:30:00 13.3 C 11.09 g/m*3 13.3 C 1.6 km/h
560 06-06-2012 22:35:00 13.2 C 11.02 g/m*3 13.2 C 0 km/h
561 06-06-2012 22:40:00 13.2 C 11.02 g/m*3 13.2 C 1.6 km/h
562 06-06-2012 22:45:00 13.1 C 10.95 g/m*3 13.1 C 0 km/h
563 06-06-2012 22:50:00 13.1 C 10.95 g/m*3 13.1 C 0 km/h
564 06-06-2012 22:55:00 13 C 10.89 g/m*3 13 C 0 km/h
565 06-06-2012 23:00:00 13 C 10.89 g/m*3 13 C 1.6 km/h
566 06-06-2012 23:05:00 12.9 C 10.82 g/m*3 12.9 C 3.2 km/h
567 06-06-2012 23:10:00 12.9 C 10.82 g/m*3 12.9 C 1.6 km/h
568 06-06-2012 23:15:00 12.8 C 10.75 g/m*3 12.8 C 1.6 km/h
569 06-06-2012 23:20:00 12.8 C 10.75 g/m*3 12.8 C 1.6 km/h
570 06-06-2012 23:25:00 12.7 C 10.69 g/m*3 12.7 C 0 km/h
571 06-06-2012 23:30:00 12.7 C 10.69 g/m*3 12.7 C 1.6 km/h
572 06-06-2012 23:35:00 12.6 C 10.62 g/m*3 12.6 C 0 km/h
573 06-06-2012 23:40:00 12.6 C 10.62 g/m*3 12.6 C 0 km/h
574 06-06-2012 23:45:00 12.6 C 10.62 g/m*3 12.6 C 1.6 km/h
575 06-06-2012 23:50:00 12.6 C 10.62 g/m*3 12.6 C 0 km/h
Sensor: Nr:Datum:Temp:Abs-Feuchte:Windchill:Wind:
Aussen-T/F 576 06-06-2012 23:55:00 12.6 C 10.62 g/m*3 12.6 C 0 km/h

Legende:
   Min
   Max


Maximal/Minimal-Werte vom 05.06.2012 - 06.06.2012

Sensor Min Max Avg
Temp
(Aussen-T/F)
8.4 °C
05-06-2012  08:00:00
19.1 °C
06-06-2012  14:55:00
12.62 °C
Abs-Feuchte
(Aussen-T/F)
5.61 g/m*3
05-06-2012  14:05:00
13.54 g/m*3
06-06-2012  16:50:00
8.6 g/m*3
Windchill
(Aussen-T/F)
6.97 C
05-06-2012  02:25:00
19.1 C
06-06-2012  14:55:00
12.57 C

Die Daten stammen von einer Davis Vantage Pro 2 Wetter-Station und werden unter Linux mit der Software wview2wettercgi und aufbereitet. Alle Angaben erfolgen ohne Gewähr für ihre Vollständigkeit oder Richtigkeit.
Kontakt: Rainer Krienke krienke@uni-koblenz.de . Meine Webseiten an der Uni Koblenz oder privat.
Version: $Revision: 0.78 $